sensor_id;sensor_type;location;lat;lon;timestamp;P1;durP1;ratioP1;P2;durP2;ratioP2
76123;SDS011;65173;48.066;20.976;2024-03-29T00:01:51;1.52;;;0.77;;
76123;SDS011;65173;48.066;20.976;2024-03-29T00:04:53;3.47;;;1.23;;
76123;SDS011;65173;48.066;20.976;2024-03-29T00:07:54;0.70;;;0.45;;
76123;SDS011;65173;48.066;20.976;2024-03-29T00:10:56;2.88;;;1.00;;
76123;SDS011;65173;48.066;20.976;2024-03-29T00:13:58;1.87;;;0.50;;
76123;SDS011;65173;48.066;20.976;2024-03-29T00:16:59;3.00;;;1.70;;
76123;SDS011;65173;48.066;20.976;2024-03-29T00:20:01;1.85;;;1.10;;
76123;SDS011;65173;48.066;20.976;2024-03-29T00:23:04;0.83;;;0.50;;
76123;SDS011;65173;48.066;20.976;2024-03-29T00:26:06;1.20;;;0.85;;
76123;SDS011;65173;48.066;20.976;2024-03-29T00:29:08;0.82;;;0.35;;
76123;SDS011;65173;48.066;20.976;2024-03-29T00:32:10;0.50;;;0.50;;
76123;SDS011;65173;48.066;20.976;2024-03-29T00:35:11;1.25;;;0.70;;
76123;SDS011;65173;48.066;20.976;2024-03-29T00:38:15;5.78;;;0.90;;
76123;SDS011;65173;48.066;20.976;2024-03-29T00:41:17;0.75;;;0.73;;
76123;SDS011;65173;48.066;20.976;2024-03-29T00:44:19;0.63;;;0.60;;
76123;SDS011;65173;48.066;20.976;2024-03-29T00:47:20;0.93;;;0.57;;
76123;SDS011;65173;48.066;20.976;2024-03-29T00:50:22;0.50;;;0.20;;
76123;SDS011;65173;48.066;20.976;2024-03-29T00:53:24;1.20;;;0.43;;
76123;SDS011;65173;48.066;20.976;2024-03-29T00:56:25;3.17;;;0.52;;
76123;SDS011;65173;48.066;20.976;2024-03-29T00:59:27;0.65;;;0.30;;
76123;SDS011;65173;48.066;20.976;2024-03-29T01:02:29;0.10;;;0.10;;
76123;SDS011;65173;48.066;20.976;2024-03-29T01:05:30;0.10;;;0.10;;
76123;SDS011;65173;48.066;20.976;2024-03-29T01:08:32;1.38;;;0.70;;
76123;SDS011;65173;48.066;20.976;2024-03-29T01:11:34;0.75;;;0.10;;
76123;SDS011;65173;48.066;20.976;2024-03-29T01:14:35;0.67;;;0.40;;
76123;SDS011;65173;48.066;20.976;2024-03-29T01:17:37;0.20;;;0.20;;
76123;SDS011;65173;48.066;20.976;2024-03-29T01:20:38;0.88;;;0.35;;
76123;SDS011;65173;48.066;20.976;2024-03-29T01:23:40;0.00;;;0.00;;
76123;SDS011;65173;48.066;20.976;2024-03-29T01:26:42;0.20;;;0.20;;
76123;SDS011;65173;48.066;20.976;2024-03-29T01:29:44;0.20;;;0.10;;
76123;SDS011;65173;48.066;20.976;2024-03-29T01:32:45;0.30;;;0.10;;
76123;SDS011;65173;48.066;20.976;2024-03-29T01:35:47;0.10;;;0.10;;
76123;SDS011;65173;48.066;20.976;2024-03-29T01:38:51;0.15;;;0.15;;
76123;SDS011;65173;48.066;20.976;2024-03-29T01:41:55;0.85;;;0.20;;
76123;SDS011;65173;48.066;20.976;2024-03-29T01:44:57;0.10;;;0.10;;
76123;SDS011;65173;48.066;20.976;2024-03-29T01:48:00;0.30;;;0.20;;
76123;SDS011;65173;48.066;20.976;2024-03-29T01:51:02;0.00;;;0.00;;
76123;SDS011;65173;48.066;20.976;2024-03-29T01:54:04;0.03;;;0.03;;
76123;SDS011;65173;48.066;20.976;2024-03-29T01:57:06;0.00;;;0.00;;
76123;SDS011;65173;48.066;20.976;2024-03-29T02:00:08;0.00;;;0.00;;
76123;SDS011;65173;48.066;20.976;2024-03-29T02:03:11;0.00;;;0.00;;
76123;SDS011;65173;48.066;20.976;2024-03-29T02:06:15;0.00;;;0.00;;
76123;SDS011;65173;48.066;20.976;2024-03-29T02:09:17;0.00;;;0.00;;
76123;SDS011;65173;48.066;20.976;2024-03-29T02:12:19;0.00;;;0.00;;
76123;SDS011;65173;48.066;20.976;2024-03-29T02:15:20;0.27;;;0.10;;
76123;SDS011;65173;48.066;20.976;2024-03-29T02:18:22;0.05;;;0.05;;
76123;SDS011;65173;48.066;20.976;2024-03-29T02:21:24;0.00;;;0.00;;
76123;SDS011;65173;48.066;20.976;2024-03-29T02:24:26;0.00;;;0.00;;
76123;SDS011;65173;48.066;20.976;2024-03-29T02:27:28;0.10;;;0.10;;
76123;SDS011;65173;48.066;20.976;2024-03-29T02:30:30;0.08;;;0.08;;
76123;SDS011;65173;48.066;20.976;2024-03-29T02:33:32;0.52;;;0.10;;
76123;SDS011;65173;48.066;20.976;2024-03-29T02:36:33;0.00;;;0.00;;
76123;SDS011;65173;48.066;20.976;2024-03-29T02:39:35;0.05;;;0.05;;
76123;SDS011;65173;48.066;20.976;2024-03-29T02:42:37;0.00;;;0.00;;
76123;SDS011;65173;48.066;20.976;2024-03-29T02:45:38;0.03;;;0.03;;
76123;SDS011;65173;48.066;20.976;2024-03-29T02:48:40;0.00;;;0.00;;
76123;SDS011;65173;48.066;20.976;2024-03-29T02:51:42;0.30;;;0.30;;
76123;SDS011;65173;48.066;20.976;2024-03-29T02:54:44;10.47;;;4.73;;
76123;SDS011;65173;48.066;20.976;2024-03-29T02:57:46;9.05;;;3.95;;
76123;SDS011;65173;48.066;20.976;2024-03-29T03:00:47;1.00;;;0.60;;
76123;SDS011;65173;48.066;20.976;2024-03-29T03:03:49;0.75;;;0.38;;
76123;SDS011;65173;48.066;20.976;2024-03-29T03:06:51;1.77;;;0.68;;
76123;SDS011;65173;48.066;20.976;2024-03-29T03:09:52;1.88;;;0.47;;
76123;SDS011;65173;48.066;20.976;2024-03-29T03:13:13;0.22;;;0.10;;
76123;SDS011;65173;48.066;20.976;2024-03-29T03:16:14;0.73;;;0.10;;
76123;SDS011;65173;48.066;20.976;2024-03-29T03:19:16;0.88;;;0.20;;
76123;SDS011;65173;48.066;20.976;2024-03-29T03:22:18;0.10;;;0.10;;
76123;SDS011;65173;48.066;20.976;2024-03-29T03:25:19;0.53;;;0.27;;
76123;SDS011;65173;48.066;20.976;2024-03-29T03:28:22;0.20;;;0.10;;
76123;SDS011;65173;48.066;20.976;2024-03-29T03:31:23;0.70;;;0.52;;
76123;SDS011;65173;48.066;20.976;2024-03-29T03:34:25;2.72;;;0.68;;
76123;SDS011;65173;48.066;20.976;2024-03-29T03:37:27;1.77;;;1.33;;
76123;SDS011;65173;48.066;20.976;2024-03-29T03:40:28;2.30;;;0.43;;
76123;SDS011;65173;48.066;20.976;2024-03-29T03:43:30;0.00;;;0.00;;
76123;SDS011;65173;48.066;20.976;2024-03-29T03:46:31;0.20;;;0.10;;
76123;SDS011;65173;48.066;20.976;2024-03-29T03:49:33;0.47;;;0.20;;
76123;SDS011;65173;48.066;20.976;2024-03-29T03:52:35;1.38;;;0.03;;
76123;SDS011;65173;48.066;20.976;2024-03-29T03:55:36;0.53;;;0.20;;
76123;SDS011;65173;48.066;20.976;2024-03-29T03:58:38;0.00;;;0.00;;
76123;SDS011;65173;48.066;20.976;2024-03-29T04:01:41;0.10;;;0.10;;
76123;SDS011;65173;48.066;20.976;2024-03-29T04:04:42;0.20;;;0.10;;
76123;SDS011;65173;48.066;20.976;2024-03-29T04:07:47;0.75;;;0.17;;
76123;SDS011;65173;48.066;20.976;2024-03-29T04:10:49;10.32;;;5.40;;
76123;SDS011;65173;48.066;20.976;2024-03-29T04:13:51;2.05;;;0.88;;
76123;SDS011;65173;48.066;20.976;2024-03-29T04:16:53;1.17;;;0.10;;
76123;SDS011;65173;48.066;20.976;2024-03-29T04:19:55;0.65;;;0.50;;
76123;SDS011;65173;48.066;20.976;2024-03-29T04:22:57;0.50;;;0.45;;
76123;SDS011;65173;48.066;20.976;2024-03-29T04:25:59;0.87;;;0.53;;
76123;SDS011;65173;48.066;20.976;2024-03-29T04:29:01;0.40;;;0.30;;
76123;SDS011;65173;48.066;20.976;2024-03-29T04:32:02;1.33;;;0.10;;
76123;SDS011;65173;48.066;20.976;2024-03-29T04:35:04;0.45;;;0.10;;
76123;SDS011;65173;48.066;20.976;2024-03-29T04:38:07;9.00;;;0.68;;
76123;SDS011;65173;48.066;20.976;2024-03-29T04:41:08;1.50;;;0.70;;
76123;SDS011;65173;48.066;20.976;2024-03-29T04:44:11;0.20;;;0.10;;
76123;SDS011;65173;48.066;20.976;2024-03-29T04:47:15;0.60;;;0.33;;
76123;SDS011;65173;48.066;20.976;2024-03-29T04:50:16;0.25;;;0.10;;
76123;SDS011;65173;48.066;20.976;2024-03-29T04:53:18;1.83;;;0.75;;
76123;SDS011;65173;48.066;20.976;2024-03-29T04:56:20;0.60;;;0.43;;
76123;SDS011;65173;48.066;20.976;2024-03-29T04:59:21;1.05;;;0.40;;
76123;SDS011;65173;48.066;20.976;2024-03-29T05:02:24;2.03;;;1.05;;
76123;SDS011;65173;48.066;20.976;2024-03-29T05:05:26;0.70;;;0.63;;
76123;SDS011;65173;48.066;20.976;2024-03-29T05:08:27;0.35;;;0.32;;
76123;SDS011;65173;48.066;20.976;2024-03-29T05:11:29;0.30;;;0.28;;
76123;SDS011;65173;48.066;20.976;2024-03-29T05:14:30;0.05;;;0.05;;
76123;SDS011;65173;48.066;20.976;2024-03-29T05:17:32;0.00;;;0.00;;
76123;SDS011;65173;48.066;20.976;2024-03-29T05:20:34;0.28;;;0.20;;
76123;SDS011;65173;48.066;20.976;2024-03-29T05:23:35;0.25;;;0.25;;
76123;SDS011;65173;48.066;20.976;2024-03-29T05:26:37;0.63;;;0.30;;
76123;SDS011;65173;48.066;20.976;2024-03-29T05:29:39;1.17;;;0.47;;
76123;SDS011;65173;48.066;20.976;2024-03-29T05:32:42;2.35;;;1.35;;
76123;SDS011;65173;48.066;20.976;2024-03-29T05:35:44;0.08;;;0.08;;
76123;SDS011;65173;48.066;20.976;2024-03-29T05:38:45;0.20;;;0.20;;
76123;SDS011;65173;48.066;20.976;2024-03-29T05:41:47;0.10;;;0.10;;
76123;SDS011;65173;48.066;20.976;2024-03-29T05:44:48;0.57;;;0.40;;
76123;SDS011;65173;48.066;20.976;2024-03-29T05:47:51;0.13;;;0.13;;
76123;SDS011;65173;48.066;20.976;2024-03-29T05:50:53;0.60;;;0.30;;
76123;SDS011;65173;48.066;20.976;2024-03-29T05:53:55;0.22;;;0.22;;
76123;SDS011;65173;48.066;20.976;2024-03-29T05:56:57;0.20;;;0.20;;
76123;SDS011;65173;48.066;20.976;2024-03-29T05:59:59;0.20;;;0.20;;
76123;SDS011;65173;48.066;20.976;2024-03-29T06:03:01;0.20;;;0.20;;
76123;SDS011;65173;48.066;20.976;2024-03-29T06:06:06;0.35;;;0.22;;
76123;SDS011;65173;48.066;20.976;2024-03-29T06:09:08;0.55;;;0.52;;
76123;SDS011;65173;48.066;20.976;2024-03-29T06:12:10;0.50;;;0.38;;
76123;SDS011;65173;48.066;20.976;2024-03-29T06:15:13;1.05;;;0.95;;
76123;SDS011;65173;48.066;20.976;2024-03-29T06:18:33;0.83;;;0.27;;
76123;SDS011;65173;48.066;20.976;2024-03-29T06:21:34;0.10;;;0.10;;
76123;SDS011;65173;48.066;20.976;2024-03-29T06:24:43;0.32;;;0.32;;
76123;SDS011;65173;48.066;20.976;2024-03-29T06:27:45;1.07;;;0.50;;
76123;SDS011;65173;48.066;20.976;2024-03-29T06:30:50;0.47;;;0.47;;
76123;SDS011;65173;48.066;20.976;2024-03-29T06:33:52;0.95;;;0.40;;
76123;SDS011;65173;48.066;20.976;2024-03-29T06:36:54;0.20;;;0.20;;
76123;SDS011;65173;48.066;20.976;2024-03-29T06:39:56;0.30;;;0.30;;
76123;SDS011;65173;48.066;20.976;2024-03-29T06:42:57;0.30;;;0.30;;
76123;SDS011;65173;48.066;20.976;2024-03-29T06:46:00;0.63;;;0.60;;
76123;SDS011;65173;48.066;20.976;2024-03-29T06:49:04;0.10;;;0.10;;
76123;SDS011;65173;48.066;20.976;2024-03-29T06:52:06;0.20;;;0.20;;
76123;SDS011;65173;48.066;20.976;2024-03-29T06:55:08;0.32;;;0.25;;
76123;SDS011;65173;48.066;20.976;2024-03-29T06:58:11;0.20;;;0.20;;
76123;SDS011;65173;48.066;20.976;2024-03-29T07:01:12;0.17;;;0.17;;
76123;SDS011;65173;48.066;20.976;2024-03-29T07:04:14;0.30;;;0.25;;
76123;SDS011;65173;48.066;20.976;2024-03-29T07:07:16;0.20;;;0.20;;
76123;SDS011;65173;48.066;20.976;2024-03-29T07:10:17;0.30;;;0.20;;
76123;SDS011;65173;48.066;20.976;2024-03-29T07:13:19;0.10;;;0.10;;
76123;SDS011;65173;48.066;20.976;2024-03-29T07:16:20;0.85;;;0.22;;
76123;SDS011;65173;48.066;20.976;2024-03-29T07:19:22;0.37;;;0.37;;
76123;SDS011;65173;48.066;20.976;2024-03-29T07:22:24;0.93;;;0.80;;
76123;SDS011;65173;48.066;20.976;2024-03-29T07:25:25;0.45;;;0.30;;
76123;SDS011;65173;48.066;20.976;2024-03-29T07:28:27;0.30;;;0.30;;
76123;SDS011;65173;48.066;20.976;2024-03-29T07:31:29;0.43;;;0.43;;
76123;SDS011;65173;48.066;20.976;2024-03-29T07:34:31;0.38;;;0.38;;
76123;SDS011;65173;48.066;20.976;2024-03-29T07:37:32;0.10;;;0.10;;
76123;SDS011;65173;48.066;20.976;2024-03-29T07:40:34;0.17;;;0.10;;
76123;SDS011;65173;48.066;20.976;2024-03-29T07:43:39;3.03;;;0.43;;
76123;SDS011;65173;48.066;20.976;2024-03-29T07:46:42;0.30;;;0.30;;
76123;SDS011;65173;48.066;20.976;2024-03-29T07:49:43;0.27;;;0.27;;
76123;SDS011;65173;48.066;20.976;2024-03-29T07:52:47;0.15;;;0.15;;
76123;SDS011;65173;48.066;20.976;2024-03-29T07:55:49;0.38;;;0.38;;
76123;SDS011;65173;48.066;20.976;2024-03-29T07:58:52;0.20;;;0.20;;
76123;SDS011;65173;48.066;20.976;2024-03-29T08:01:54;0.20;;;0.20;;
76123;SDS011;65173;48.066;20.976;2024-03-29T08:04:57;0.20;;;0.20;;
76123;SDS011;65173;48.066;20.976;2024-03-29T08:07:58;0.30;;;0.30;;
76123;SDS011;65173;48.066;20.976;2024-03-29T08:11:00;0.22;;;0.22;;
76123;SDS011;65173;48.066;20.976;2024-03-29T08:14:02;0.47;;;0.32;;
76123;SDS011;65173;48.066;20.976;2024-03-29T08:17:04;0.30;;;0.30;;
76123;SDS011;65173;48.066;20.976;2024-03-29T08:20:09;0.07;;;0.07;;
76123;SDS011;65173;48.066;20.976;2024-03-29T08:23:11;0.68;;;0.68;;
76123;SDS011;65173;48.066;20.976;2024-03-29T08:26:12;0.82;;;0.30;;
76123;SDS011;65173;48.066;20.976;2024-03-29T08:29:14;0.57;;;0.57;;
76123;SDS011;65173;48.066;20.976;2024-03-29T08:32:16;0.20;;;0.20;;
76123;SDS011;65173;48.066;20.976;2024-03-29T08:35:17;0.20;;;0.20;;
76123;SDS011;65173;48.066;20.976;2024-03-29T08:38:19;0.90;;;0.43;;
76123;SDS011;65173;48.066;20.976;2024-03-29T08:41:21;0.60;;;0.60;;
76123;SDS011;65173;48.066;20.976;2024-03-29T08:44:23;0.60;;;0.20;;
76123;SDS011;65173;48.066;20.976;2024-03-29T08:47:26;0.35;;;0.35;;
76123;SDS011;65173;48.066;20.976;2024-03-29T08:50:27;1.13;;;0.37;;
76123;SDS011;65173;48.066;20.976;2024-03-29T08:53:29;0.28;;;0.28;;
76123;SDS011;65173;48.066;20.976;2024-03-29T08:56:31;0.60;;;0.60;;
76123;SDS011;65173;48.066;20.976;2024-03-29T08:59:33;0.30;;;0.10;;
76123;SDS011;65173;48.066;20.976;2024-03-29T09:02:35;0.88;;;0.88;;
76123;SDS011;65173;48.066;20.976;2024-03-29T09:05:37;1.85;;;0.43;;
76123;SDS011;65173;48.066;20.976;2024-03-29T09:08:38;0.43;;;0.40;;
76123;SDS011;65173;48.066;20.976;2024-03-29T09:11:40;0.35;;;0.30;;
76123;SDS011;65173;48.066;20.976;2024-03-29T09:14:42;0.30;;;0.20;;
76123;SDS011;65173;48.066;20.976;2024-03-29T09:17:43;0.40;;;0.40;;
76123;SDS011;65173;48.066;20.976;2024-03-29T09:20:45;0.30;;;0.20;;
76123;SDS011;65173;48.066;20.976;2024-03-29T09:23:47;0.22;;;0.22;;
76123;SDS011;65173;48.066;20.976;2024-03-29T09:26:49;0.22;;;0.20;;
76123;SDS011;65173;48.066;20.976;2024-03-29T09:29:51;1.07;;;0.40;;
76123;SDS011;65173;48.066;20.976;2024-03-29T09:32:53;1.25;;;0.40;;
76123;SDS011;65173;48.066;20.976;2024-03-29T09:35:54;0.52;;;0.43;;
76123;SDS011;65173;48.066;20.976;2024-03-29T09:38:56;0.20;;;0.20;;
76123;SDS011;65173;48.066;20.976;2024-03-29T09:41:58;0.40;;;0.40;;
76123;SDS011;65173;48.066;20.976;2024-03-29T09:45:02;0.30;;;0.30;;
76123;SDS011;65173;48.066;20.976;2024-03-29T09:48:07;0.70;;;0.63;;
76123;SDS011;65173;48.066;20.976;2024-03-29T09:51:10;0.57;;;0.57;;
76123;SDS011;65173;48.066;20.976;2024-03-29T09:54:14;0.40;;;0.40;;
76123;SDS011;65173;48.066;20.976;2024-03-29T09:57:17;1.35;;;0.85;;
76123;SDS011;65173;48.066;20.976;2024-03-29T10:00:19;0.50;;;0.30;;
76123;SDS011;65173;48.066;20.976;2024-03-29T10:03:23;0.32;;;0.32;;
76123;SDS011;65173;48.066;20.976;2024-03-29T10:06:30;1.10;;;0.50;;
76123;SDS011;65173;48.066;20.976;2024-03-29T10:09:35;0.65;;;0.40;;
76123;SDS011;65173;48.066;20.976;2024-03-29T10:12:37;0.45;;;0.32;;
76123;SDS011;65173;48.066;20.976;2024-03-29T10:15:39;0.20;;;0.20;;
76123;SDS011;65173;48.066;20.976;2024-03-29T10:18:46;0.52;;;0.30;;
76123;SDS011;65173;48.066;20.976;2024-03-29T10:21:49;0.50;;;0.50;;
76123;SDS011;65173;48.066;20.976;2024-03-29T10:24:50;0.25;;;0.25;;
76123;SDS011;65173;48.066;20.976;2024-03-29T10:27:52;0.10;;;0.10;;
76123;SDS011;65173;48.066;20.976;2024-03-29T10:30:54;1.63;;;0.70;;
76123;SDS011;65173;48.066;20.976;2024-03-29T10:34:01;0.22;;;0.22;;
76123;SDS011;65173;48.066;20.976;2024-03-29T10:37:04;0.40;;;0.15;;
76123;SDS011;65173;48.066;20.976;2024-03-29T10:40:07;0.63;;;0.20;;
76123;SDS011;65173;48.066;20.976;2024-03-29T10:43:10;0.25;;;0.20;;
76123;SDS011;65173;48.066;20.976;2024-03-29T10:46:17;0.60;;;0.60;;
76123;SDS011;65173;48.066;20.976;2024-03-29T10:49:21;0.35;;;0.10;;
76123;SDS011;65173;48.066;20.976;2024-03-29T10:52:24;0.00;;;0.00;;
76123;SDS011;65173;48.066;20.976;2024-03-29T10:55:28;0.65;;;0.30;;
76123;SDS011;65173;48.066;20.976;2024-03-29T10:58:35;0.47;;;0.30;;
76123;SDS011;65173;48.066;20.976;2024-03-29T11:01:41;0.60;;;0.23;;
76123;SDS011;65173;48.066;20.976;2024-03-29T11:04:48;0.10;;;0.10;;
76123;SDS011;65173;48.066;20.976;2024-03-29T11:07:51;0.30;;;0.30;;
76123;SDS011;65173;48.066;20.976;2024-03-29T11:10:56;0.45;;;0.45;;
76123;SDS011;65173;48.066;20.976;2024-03-29T11:14:08;0.50;;;0.50;;
76123;SDS011;65173;48.066;20.976;2024-03-29T11:17:15;0.63;;;0.32;;
76123;SDS011;65173;48.066;20.976;2024-03-29T11:20:17;0.32;;;0.32;;
76123;SDS011;65173;48.066;20.976;2024-03-29T11:23:26;0.20;;;0.20;;
76123;SDS011;65173;48.066;20.976;2024-03-29T11:26:28;0.50;;;0.30;;
76123;SDS011;65173;48.066;20.976;2024-03-29T11:29:30;1.95;;;1.85;;
76123;SDS011;65173;48.066;20.976;2024-03-29T11:32:36;1.13;;;0.30;;
76123;SDS011;65173;48.066;20.976;2024-03-29T11:35:40;0.20;;;0.20;;
76123;SDS011;65173;48.066;20.976;2024-03-29T11:38:41;0.22;;;0.22;;
76123;SDS011;65173;48.066;20.976;2024-03-29T11:41:50;0.30;;;0.30;;
76123;SDS011;65173;48.066;20.976;2024-03-29T11:44:52;0.25;;;0.15;;
76123;SDS011;65173;48.066;20.976;2024-03-29T11:47:57;0.50;;;0.50;;
76123;SDS011;65173;48.066;20.976;2024-03-29T11:51:03;0.30;;;0.30;;
76123;SDS011;65173;48.066;20.976;2024-03-29T11:54:06;0.23;;;0.23;;
76123;SDS011;65173;48.066;20.976;2024-03-29T11:57:08;0.52;;;0.52;;
76123;SDS011;65173;48.066;20.976;2024-03-29T12:00:10;0.65;;;0.65;;
76123;SDS011;65173;48.066;20.976;2024-03-29T12:03:12;0.50;;;0.20;;
76123;SDS011;65173;48.066;20.976;2024-03-29T12:06:14;0.35;;;0.15;;
76123;SDS011;65173;48.066;20.976;2024-03-29T12:09:18;3.30;;;0.40;;
76123;SDS011;65173;48.066;20.976;2024-03-29T12:12:20;1.10;;;0.40;;
76123;SDS011;65173;48.066;20.976;2024-03-29T12:15:23;0.63;;;0.40;;
76123;SDS011;65173;48.066;20.976;2024-03-29T12:18:25;0.68;;;0.20;;
76123;SDS011;65173;48.066;20.976;2024-03-29T12:21:29;0.57;;;0.30;;
76123;SDS011;65173;48.066;20.976;2024-03-29T12:24:31;0.30;;;0.30;;
76123;SDS011;65173;48.066;20.976;2024-03-29T12:27:34;1.13;;;0.20;;
76123;SDS011;65173;48.066;20.976;2024-03-29T12:30:35;0.68;;;0.38;;
76123;SDS011;65173;48.066;20.976;2024-03-29T12:33:40;0.20;;;0.10;;
76123;SDS011;65173;48.066;20.976;2024-03-29T12:36:42;0.63;;;0.20;;
76123;SDS011;65173;48.066;20.976;2024-03-29T12:39:43;0.10;;;0.10;;
76123;SDS011;65173;48.066;20.976;2024-03-29T12:42:48;0.43;;;0.30;;
76123;SDS011;65173;48.066;20.976;2024-03-29T12:45:50;0.50;;;0.30;;
76123;SDS011;65173;48.066;20.976;2024-03-29T12:48:59;0.38;;;0.22;;
76123;SDS011;65173;48.066;20.976;2024-03-29T12:52:01;1.20;;;0.32;;
76123;SDS011;65173;48.066;20.976;2024-03-29T12:55:03;0.77;;;0.30;;
76123;SDS011;65173;48.066;20.976;2024-03-29T12:58:06;0.52;;;0.30;;
76123;SDS011;65173;48.066;20.976;2024-03-29T13:01:10;0.22;;;0.20;;
76123;SDS011;65173;48.066;20.976;2024-03-29T13:04:12;1.23;;;0.20;;
76123;SDS011;65173;48.066;20.976;2024-03-29T13:07:14;0.40;;;0.40;;
76123;SDS011;65173;48.066;20.976;2024-03-29T13:10:16;0.32;;;0.32;;
76123;SDS011;65173;48.066;20.976;2024-03-29T13:13:22;2.15;;;0.30;;
76123;SDS011;65173;48.066;20.976;2024-03-29T13:16:23;1.83;;;0.28;;
76123;SDS011;65173;48.066;20.976;2024-03-29T13:19:25;2.50;;;0.40;;
76123;SDS011;65173;48.066;20.976;2024-03-29T13:22:27;0.15;;;0.13;;
76123;SDS011;65173;48.066;20.976;2024-03-29T13:25:29;0.20;;;0.20;;
76123;SDS011;65173;48.066;20.976;2024-03-29T13:28:30;0.95;;;0.40;;
76123;SDS011;65173;48.066;20.976;2024-03-29T13:31:32;1.00;;;0.20;;
76123;SDS011;65173;48.066;20.976;2024-03-29T13:34:34;1.93;;;0.43;;
76123;SDS011;65173;48.066;20.976;2024-03-29T13:37:37;0.20;;;0.20;;
76123;SDS011;65173;48.066;20.976;2024-03-29T13:40:49;0.38;;;0.10;;
76123;SDS011;65173;48.066;20.976;2024-03-29T13:43:51;2.28;;;0.60;;
76123;SDS011;65173;48.066;20.976;2024-03-29T13:46:53;0.20;;;0.20;;
76123;SDS011;65173;48.066;20.976;2024-03-29T13:49:55;0.20;;;0.10;;
76123;SDS011;65173;48.066;20.976;2024-03-29T13:52:58;1.80;;;0.50;;
76123;SDS011;65173;48.066;20.976;2024-03-29T13:56:00;1.40;;;0.30;;
76123;SDS011;65173;48.066;20.976;2024-03-29T13:59:02;2.35;;;0.47;;
76123;SDS011;65173;48.066;20.976;2024-03-29T14:02:04;2.17;;;0.60;;
76123;SDS011;65173;48.066;20.976;2024-03-29T14:05:06;2.53;;;0.20;;
76123;SDS011;65173;48.066;20.976;2024-03-29T14:08:08;1.58;;;0.40;;
76123;SDS011;65173;48.066;20.976;2024-03-29T14:11:10;2.60;;;0.82;;
76123;SDS011;65173;48.066;20.976;2024-03-29T14:14:12;0.20;;;0.20;;
76123;SDS011;65173;48.066;20.976;2024-03-29T14:17:14;0.93;;;0.15;;
76123;SDS011;65173;48.066;20.976;2024-03-29T14:20:16;1.35;;;0.20;;
76123;SDS011;65173;48.066;20.976;2024-03-29T14:23:17;1.50;;;0.22;;
76123;SDS011;65173;48.066;20.976;2024-03-29T14:26:24;0.57;;;0.37;;
76123;SDS011;65173;48.066;20.976;2024-03-29T14:29:26;0.80;;;0.57;;
76123;SDS011;65173;48.066;20.976;2024-03-29T14:32:28;2.58;;;0.50;;
76123;SDS011;65173;48.066;20.976;2024-03-29T14:35:30;3.83;;;0.70;;
76123;SDS011;65173;48.066;20.976;2024-03-29T14:38:32;2.35;;;0.32;;
76123;SDS011;65173;48.066;20.976;2024-03-29T14:41:34;1.20;;;0.35;;
76123;SDS011;65173;48.066;20.976;2024-03-29T14:44:37;2.70;;;0.47;;
76123;SDS011;65173;48.066;20.976;2024-03-29T14:47:39;0.77;;;0.45;;
76123;SDS011;65173;48.066;20.976;2024-03-29T14:50:42;3.55;;;1.15;;
76123;SDS011;65173;48.066;20.976;2024-03-29T14:53:44;2.70;;;1.20;;
76123;SDS011;65173;48.066;20.976;2024-03-29T14:56:50;1.20;;;0.50;;
76123;SDS011;65173;48.066;20.976;2024-03-29T14:59:52;2.25;;;0.40;;
76123;SDS011;65173;48.066;20.976;2024-03-29T15:02:53;0.93;;;0.40;;
76123;SDS011;65173;48.066;20.976;2024-03-29T15:05:55;1.90;;;0.60;;
76123;SDS011;65173;48.066;20.976;2024-03-29T15:08:57;2.15;;;0.70;;
76123;SDS011;65173;48.066;20.976;2024-03-29T15:11:59;3.50;;;1.05;;
76123;SDS011;65173;48.066;20.976;2024-03-29T15:15:00;1.00;;;0.60;;
76123;SDS011;65173;48.066;20.976;2024-03-29T15:18:03;3.90;;;1.45;;
76123;SDS011;65173;48.066;20.976;2024-03-29T15:21:06;2.03;;;0.70;;
76123;SDS011;65173;48.066;20.976;2024-03-29T15:24:09;2.10;;;0.77;;
76123;SDS011;65173;48.066;20.976;2024-03-29T15:27:11;3.20;;;1.10;;
76123;SDS011;65173;48.066;20.976;2024-03-29T15:30:28;1.13;;;0.82;;
76123;SDS011;65173;48.066;20.976;2024-03-29T15:33:30;2.40;;;0.77;;
76123;SDS011;65173;48.066;20.976;2024-03-29T15:36:32;5.30;;;1.10;;
76123;SDS011;65173;48.066;20.976;2024-03-29T15:39:34;2.25;;;0.90;;
76123;SDS011;65173;48.066;20.976;2024-03-29T15:42:36;2.97;;;1.23;;
76123;SDS011;65173;48.066;20.976;2024-03-29T15:45:40;3.88;;;1.90;;
76123;SDS011;65173;48.066;20.976;2024-03-29T15:48:41;2.00;;;0.90;;
76123;SDS011;65173;48.066;20.976;2024-03-29T15:51:43;2.05;;;0.85;;
76123;SDS011;65173;48.066;20.976;2024-03-29T15:54:45;1.55;;;0.75;;
76123;SDS011;65173;48.066;20.976;2024-03-29T15:57:46;6.33;;;1.13;;
76123;SDS011;65173;48.066;20.976;2024-03-29T16:00:49;11.18;;;3.83;;
76123;SDS011;65173;48.066;20.976;2024-03-29T16:03:52;8.75;;;3.75;;
76123;SDS011;65173;48.066;20.976;2024-03-29T16:06:54;7.90;;;3.63;;
76123;SDS011;65173;48.066;20.976;2024-03-29T16:09:57;3.17;;;2.42;;
76123;SDS011;65173;48.066;20.976;2024-03-29T16:13:02;10.98;;;6.38;;
76123;SDS011;65173;48.066;20.976;2024-03-29T16:16:04;7.40;;;4.20;;
76123;SDS011;65173;48.066;20.976;2024-03-29T16:19:06;19.77;;;7.53;;
76123;SDS011;65173;48.066;20.976;2024-03-29T16:22:08;41.17;;;16.40;;
76123;SDS011;65173;48.066;20.976;2024-03-29T16:25:10;36.17;;;17.60;;
76123;SDS011;65173;48.066;20.976;2024-03-29T16:28:12;29.13;;;12.50;;
76123;SDS011;65173;48.066;20.976;2024-03-29T16:31:19;32.58;;;14.60;;
76123;SDS011;65173;48.066;20.976;2024-03-29T16:34:21;23.27;;;11.73;;
76123;SDS011;65173;48.066;20.976;2024-03-29T16:37:23;21.77;;;11.33;;
76123;SDS011;65173;48.066;20.976;2024-03-29T16:40:28;10.48;;;6.78;;
76123;SDS011;65173;48.066;20.976;2024-03-29T16:43:30;9.73;;;6.43;;
76123;SDS011;65173;48.066;20.976;2024-03-29T16:46:32;11.13;;;6.20;;
76123;SDS011;65173;48.066;20.976;2024-03-29T16:49:34;18.00;;;10.13;;
76123;SDS011;65173;48.066;20.976;2024-03-29T16:52:35;23.77;;;10.40;;
76123;SDS011;65173;48.066;20.976;2024-03-29T16:55:37;22.25;;;13.15;;
76123;SDS011;65173;48.066;20.976;2024-03-29T16:58:40;21.07;;;9.97;;
76123;SDS011;65173;48.066;20.976;2024-03-29T17:01:41;14.93;;;8.73;;
76123;SDS011;65173;48.066;20.976;2024-03-29T17:04:46;10.80;;;7.30;;
76123;SDS011;65173;48.066;20.976;2024-03-29T17:07:48;13.17;;;7.17;;
76123;SDS011;65173;48.066;20.976;2024-03-29T17:10:50;10.93;;;4.80;;
76123;SDS011;65173;48.066;20.976;2024-03-29T17:13:51;10.57;;;5.28;;
76123;SDS011;65173;48.066;20.976;2024-03-29T17:16:53;10.57;;;4.90;;
76123;SDS011;65173;48.066;20.976;2024-03-29T17:20:01;14.80;;;5.93;;
76123;SDS011;65173;48.066;20.976;2024-03-29T17:23:05;13.65;;;6.53;;
76123;SDS011;65173;48.066;20.976;2024-03-29T17:26:06;14.57;;;7.50;;
76123;SDS011;65173;48.066;20.976;2024-03-29T17:29:08;17.83;;;7.20;;
76123;SDS011;65173;48.066;20.976;2024-03-29T17:32:11;13.70;;;7.05;;
76123;SDS011;65173;48.066;20.976;2024-03-29T17:35:13;16.27;;;7.07;;
76123;SDS011;65173;48.066;20.976;2024-03-29T17:38:14;13.03;;;6.90;;
76123;SDS011;65173;48.066;20.976;2024-03-29T17:41:16;13.80;;;6.43;;
76123;SDS011;65173;48.066;20.976;2024-03-29T17:44:18;13.82;;;5.65;;
76123;SDS011;65173;48.066;20.976;2024-03-29T17:47:19;13.43;;;6.53;;
76123;SDS011;65173;48.066;20.976;2024-03-29T17:50:21;13.50;;;5.13;;
76123;SDS011;65173;48.066;20.976;2024-03-29T17:53:23;8.93;;;4.15;;
76123;SDS011;65173;48.066;20.976;2024-03-29T17:56:24;5.68;;;2.70;;
76123;SDS011;65173;48.066;20.976;2024-03-29T17:59:26;12.67;;;3.67;;
76123;SDS011;65173;48.066;20.976;2024-03-29T18:02:28;13.43;;;4.20;;